Time;durP1;ratioP1;P1;durP2;ratioP2;P2;SDS_P1;SDS_P2;PMS_P1;PMS_P2;Temp;Humidity;BMP_temperature;BMP_pressure;BME280_temperature;BME280_humidity;BME280_pressure;Samples;Min_cycle;Max_cycle;Signal;HPM_P1;HPM_P2
2021/12/13 00:00:27;;;;;;;215.67;84.70;;;;;;;;;;728140;189;877121;-70
2021/12/13 00:03:11;;;;;;;332.23;109.27;;;;;;;;;;724066;189;1021501;-71
2021/12/13 00:05:37;;;;;;;270.03;101.40;;;;;;;;;;721656;191;919314;-70
2021/12/13 00:08:03;;;;;;;273.90;102.17;;;;;;;;;;724760;189;912376;-69
2021/12/13 00:10:29;;;;;;;277.10;95.90;;;;;;;;;;733271;189;711826;-71
2021/12/13 00:12:58;;;;;;;275.73;109.20;;;;;;;;;;734401;189;918835;-70
2021/12/13 00:15:24;;;;;;;364.13;107.10;;;;;;;;;;727825;189;632497;-67
2021/12/13 00:17:50;;;;;;;291.83;100.07;;;;;;;;;;730739;189;632167;-68
2021/12/13 00:20:19;;;;;;;274.93;97.07;;;;;;;;;;732873;189;670258;-70
2021/12/13 00:22:43;;;;;;;275.00;103.10;;;;;;;;;;735317;186;915076;-69
2021/12/13 00:25:08;;;;;;;283.23;99.80;;;;;;;;;;721473;189;834412;-69
2021/12/13 00:27:34;;;;;;;272.63;104.77;;;;;;;;;;733556;189;919049;-70
2021/12/13 00:30:08;;;;;;;222.13;92.80;;;;;;;;;;714471;193;919337;-70
2021/12/13 00:32:43;;;;;;;193.30;93.90;;;;;;;;;;731238;189;918817;-69
2021/12/13 00:35:09;;;;;;;206.80;86.00;;;;;;;;;;719695;189;937593;-70
2021/12/13 00:37:36;;;;;;;165.47;73.10;;;;;;;;;;737357;189;916866;-69
2021/12/13 00:40:06;;;;;;;151.73;70.70;;;;;;;;;;734841;189;918671;-69
2021/12/13 00:42:33;;;;;;;170.00;76.60;;;;;;;;;;727138;189;919343;-69
2021/12/13 00:44:59;;;;;;;182.50;82.23;;;;;;;;;;721136;189;919366;-71
2021/12/13 00:47:25;;;;;;;186.93;81.37;;;;;;;;;;720281;189;918573;-68
2021/12/13 00:49:52;;;;;;;173.10;74.67;;;;;;;;;;733092;189;918777;-69
2021/12/13 00:52:18;;;;;;;173.70;81.00;;;;;;;;;;728957;189;919338;-68
2021/12/13 00:54:43;;;;;;;168.60;77.17;;;;;;;;;;726350;190;919033;-68
2021/12/13 00:57:12;;;;;;;192.70;83.90;;;;;;;;;;721370;191;918919;-71
2021/12/13 00:59:42;;;;;;;199.80;82.10;;;;;;;;;;718803;190;918923;-67
2021/12/13 01:02:11;;;;;;;192.07;79.90;;;;;;;;;;719817;189;918365;-69
2021/12/13 01:04:43;;;;;;;185.20;76.90;;;;;;;;;;725237;189;919046;-69
2021/12/13 01:07:15;;;;;;;173.53;76.40;;;;;;;;;;724662;189;918470;-68
2021/12/13 01:09:47;;;;;;;186.83;78.70;;;;;;;;;;725148;189;919124;-70
2021/12/13 01:12:13;;;;;;;188.77;80.80;;;;;;;;;;732846;186;918096;-70
2021/12/13 01:14:41;;;;;;;198.00;83.77;;;;;;;;;;731511;190;919142;-69
2021/12/13 01:17:16;;;;;;;211.00;88.50;;;;;;;;;;718760;191;919539;-70
2021/12/13 01:19:49;;;;;;;221.17;88.67;;;;;;;;;;726800;189;917745;-69
2021/12/13 01:22:24;;;;;;;212.20;86.57;;;;;;;;;;717654;192;919465;-69
2021/12/13 01:25:16;;;;;;;211.57;89.43;;;;;;;;;;726561;189;1021024;-70
2021/12/13 01:27:12;;;;;;;212.03;87.40;;;;;;;;;;742054;189;919439;-69
2021/12/13 01:29:38;;;;;;;207.93;85.97;;;;;;;;;;725856;189;919421;-69
2021/12/13 01:32:04;;;;;;;201.80;84.33;;;;;;;;;;728251;189;918472;-69
2021/12/13 01:34:30;;;;;;;167.60;79.37;;;;;;;;;;728933;189;816126;-70
2021/12/13 01:37:05;;;;;;;200.95;83.28;;;;;;;;;;729378;187;918845;-70
2021/12/13 01:39:22;;;;;;;172.53;80.37;;;;;;;;;;726176;189;915737;-69
2021/12/13 01:41:48;;;;;;;180.90;82.00;;;;;;;;;;721348;189;915925;-70
2021/12/13 01:44:16;;;;;;;188.97;86.00;;;;;;;;;;735497;189;915122;-69
2021/12/13 01:46:42;;;;;;;177.90;82.33;;;;;;;;;;728159;189;913791;-70
2021/12/13 01:49:07;;;;;;;195.83;91.13;;;;;;;;;;732496;189;917240;-69
2021/12/13 01:51:33;;;;;;;192.13;91.10;;;;;;;;;;735529;188;915244;-69
2021/12/13 01:54:00;;;;;;;191.80;92.80;;;;;;;;;;733302;189;816568;-69
2021/12/13 01:59:03;;;;;;;190.70;85.70;;;;;;;;;;733525;189;915749;-70
2021/12/13 02:01:24;;;;;;;195.47;90.80;;;;;;;;;;734732;189;919459;-70
2021/12/13 02:03:50;;;;;;;208.47;95.20;;;;;;;;;;718583;189;919107;-70
2021/12/13 02:06:16;;;;;;;181.57;89.40;;;;;;;;;;725185;190;919353;-69
2021/12/13 02:08:42;;;;;;;195.67;93.40;;;;;;;;;;728390;189;919107;-70
2021/12/13 02:11:07;;;;;;;206.30;93.77;;;;;;;;;;725188;189;920526;-70
2021/12/13 02:13:38;;;;;;;206.47;102.80;;;;;;;;;;731895;189;924317;-67
2021/12/13 02:18:31;;;;;;;236.57;107.00;;;;;;;;;;739706;189;919291;-70
2021/12/13 02:21:03;;;;;;;194.43;95.67;;;;;;;;;;719471;189;919113;-69
2021/12/13 02:23:23;;;;;;;198.43;96.73;;;;;;;;;;723760;189;919233;-68
2021/12/13 02:25:49;;;;;;;162.67;84.97;;;;;;;;;;725934;190;918504;-69
2021/12/13 02:28:15;;;;;;;201.73;92.03;;;;;;;;;;734306;189;918141;-70
2021/12/13 02:30:43;;;;;;;176.70;85.37;;;;;;;;;;726369;189;918397;-70
2021/12/13 02:33:09;;;;;;;181.77;84.55;;;;;;;;;;730023;189;1018721;-68
2021/12/13 02:35:34;;;;;;;163.60;76.70;;;;;;;;;;727501;192;822665;-69
2021/12/13 02:38:00;;;;;;;149.30;72.73;;;;;;;;;;713780;193;919496;-69
2021/12/13 02:40:26;;;;;;;182.48;80.72;;;;;;;;;;731804;189;919368;-69
2021/12/13 02:42:52;;;;;;;195.70;76.93;;;;;;;;;;734815;189;919350;-70
2021/12/13 02:45:25;;;;;;;166.70;77.90;;;;;;;;;;722040;189;958943;-70
2021/12/13 02:47:48;;;;;;;159.40;78.60;;;;;;;;;;729711;189;919600;-69
2021/12/13 02:50:13;;;;;;;183.20;85.83;;;;;;;;;;732191;190;919390;-69
2021/12/13 02:52:39;;;;;;;189.20;83.77;;;;;;;;;;719845;189;919553;-70
2021/12/13 02:55:05;;;;;;;185.63;79.83;;;;;;;;;;726568;189;918171;-69
2021/12/13 02:57:31;;;;;;;170.80;79.20;;;;;;;;;;718297;191;919254;-68
2021/12/13 02:59:57;;;;;;;164.10;72.57;;;;;;;;;;725404;189;919124;-67
2021/12/13 03:02:25;;;;;;;166.50;77.90;;;;;;;;;;724014;189;918704;-69
2021/12/13 03:04:50;;;;;;;151.53;73.33;;;;;;;;;;721806;189;919425;-70
2021/12/13 03:07:16;;;;;;;161.20;76.37;;;;;;;;;;733111;186;919522;-69
2021/12/13 03:09:42;;;;;;;163.52;80.50;;;;;;;;;;725280;190;918829;-70
2021/12/13 03:12:08;;;;;;;163.17;76.67;;;;;;;;;;724222;190;918776;-70
2021/12/13 03:14:34;;;;;;;139.97;69.07;;;;;;;;;;724917;189;918632;-70
2021/12/13 03:17:03;;;;;;;156.93;71.10;;;;;;;;;;719919;189;918792;-70
2021/12/13 03:19:31;;;;;;;158.63;75.37;;;;;;;;;;728137;189;919845;-70
2021/12/13 03:22:09;;;;;;;164.60;79.00;;;;;;;;;;730512;187;919776;-70
2021/12/13 03:24:49;;;;;;;161.68;76.75;;;;;;;;;;719790;189;1004105;-69
2021/12/13 03:27:30;;;;;;;149.73;72.77;;;;;;;;;;715455;190;920064;-70
2021/12/13 03:29:58;;;;;;;137.95;63.33;;;;;;;;;;725597;189;920240;-70
2021/12/13 03:32:23;;;;;;;139.20;68.27;;;;;;;;;;735951;189;918850;-70
2021/12/13 03:35:01;;;;;;;138.17;65.63;;;;;;;;;;711746;193;919486;-70
2021/12/13 03:37:27;;;;;;;138.63;67.00;;;;;;;;;;732082;189;918875;-70
2021/12/13 03:39:53;;;;;;;124.83;63.03;;;;;;;;;;732154;189;919598;-69
2021/12/13 03:42:19;;;;;;;137.87;66.43;;;;;;;;;;740547;189;917873;-70
2021/12/13 03:44:46;;;;;;;129.93;65.77;;;;;;;;;;730126;189;919610;-70
2021/12/13 03:47:12;;;;;;;146.02;66.18;;;;;;;;;;730275;189;919068;-70
2021/12/13 03:49:36;;;;;;;144.03;70.00;;;;;;;;;;728202;189;918956;-69
2021/12/13 03:52:03;;;;;;;142.57;63.93;;;;;;;;;;722987;189;940416;-70
2021/12/13 03:54:28;;;;;;;126.30;62.40;;;;;;;;;;724537;190;920564;-70
2021/12/13 03:56:54;;;;;;;147.43;69.10;;;;;;;;;;731901;191;919004;-70
2021/12/13 03:59:22;;;;;;;139.80;64.53;;;;;;;;;;720949;189;920793;-69
2021/12/13 04:01:47;;;;;;;134.97;66.20;;;;;;;;;;722880;189;919728;-70
2021/12/13 04:04:16;;;;;;;134.67;63.23;;;;;;;;;;724488;189;917605;-70
2021/12/13 04:06:44;;;;;;;136.70;69.20;;;;;;;;;;734521;186;815139;-70
2021/12/13 04:09:10;;;;;;;143.57;73.63;;;;;;;;;;733566;189;918128;-70
2021/12/13 04:11:36;;;;;;;136.00;63.93;;;;;;;;;;729705;189;919664;-70
2021/12/13 04:14:08;;;;;;;147.33;64.20;;;;;;;;;;728095;189;915490;-70
2021/12/13 04:16:35;;;;;;;127.10;63.53;;;;;;;;;;728183;189;916466;-70
2021/12/13 04:21:40;;;;;;;132.90;60.80;;;;;;;;;;720046;189;1021675;-70
2021/12/13 04:24:06;;;;;;;123.13;64.27;;;;;;;;;;719245;190;919587;-70
2021/12/13 04:26:32;;;;;;;124.10;60.80;;;;;;;;;;732819;189;937847;-70
2021/12/13 04:28:58;;;;;;;144.73;64.23;;;;;;;;;;725740;189;1226148;-70
2021/12/13 04:31:23;;;;;;;130.33;66.10;;;;;;;;;;724557;189;667741;-70
2021/12/13 04:33:51;;;;;;;130.50;64.57;;;;;;;;;;730212;189;917857;-70
2021/12/13 04:36:18;;;;;;;135.30;64.00;;;;;;;;;;734636;189;816524;-70
2021/12/13 04:38:49;;;;;;;111.80;58.90;;;;;;;;;;729289;190;626051;-70
2021/12/13 04:41:09;;;;;;;127.30;65.60;;;;;;;;;;730688;186;622920;-70
2021/12/13 04:43:35;;;;;;;134.47;62.03;;;;;;;;;;735948;189;919835;-69
2021/12/13 04:46:01;;;;;;;133.93;64.30;;;;;;;;;;722235;189;919509;-70
2021/12/13 04:48:28;;;;;;;124.13;64.33;;;;;;;;;;723316;189;919309;-70
2021/12/13 04:50:53;;;;;;;114.30;60.10;;;;;;;;;;737023;189;919426;-70
2021/12/13 04:53:21;;;;;;;129.55;59.50;;;;;;;;;;722437;189;920578;-71
2021/12/13 04:55:48;;;;;;;126.93;60.38;;;;;;;;;;729221;187;918972;-70
2021/12/13 04:58:13;;;;;;;133.53;64.40;;;;;;;;;;735783;189;1021425;-69
2021/12/13 05:00:38;;;;;;;130.70;65.97;;;;;;;;;;726373;189;919872;-70
2021/12/13 05:03:04;;;;;;;120.77;59.70;;;;;;;;;;722110;189;920488;-70
2021/12/13 05:05:30;;;;;;;129.73;63.70;;;;;;;;;;722684;189;918183;-70
2021/12/13 05:07:56;;;;;;;128.43;62.22;;;;;;;;;;728595;189;917966;-68
2021/12/13 05:10:25;;;;;;;117.57;60.33;;;;;;;;;;721735;189;923594;-69
2021/12/13 05:13:01;;;;;;;120.07;58.93;;;;;;;;;;717235;189;915322;-69
2021/12/13 05:15:27;;;;;;;119.33;60.27;;;;;;;;;;723288;189;922158;-68
2021/12/13 05:17:53;;;;;;;108.32;58.72;;;;;;;;;;728868;189;916912;-69
2021/12/13 05:20:22;;;;;;;112.93;58.00;;;;;;;;;;727524;189;914183;-69
2021/12/13 05:22:50;;;;;;;125.23;59.13;;;;;;;;;;730694;189;919472;-69
2021/12/13 05:25:19;;;;;;;107.40;55.27;;;;;;;;;;727167;189;916256;-68
2021/12/13 05:27:46;;;;;;;124.83;58.63;;;;;;;;;;734154;189;915804;-69
2021/12/13 05:30:12;;;;;;;117.97;58.67;;;;;;;;;;718869;193;917688;-69
2021/12/13 05:32:38;;;;;;;119.83;55.23;;;;;;;;;;727762;189;919518;-69
2021/12/13 05:35:18;;;;;;;116.55;58.95;;;;;;;;;;733003;189;918857;-69
2021/12/13 05:37:45;;;;;;;122.67;64.73;;;;;;;;;;732327;189;918939;-69
2021/12/13 05:40:11;;;;;;;132.07;59.33;;;;;;;;;;714484;193;919207;-69
2021/12/13 05:42:39;;;;;;;117.93;60.40;;;;;;;;;;704410;196;982683;-69
2021/12/13 05:45:05;;;;;;;117.82;55.83;;;;;;;;;;715629;194;919489;-69
2021/12/13 05:47:30;;;;;;;122.33;59.70;;;;;;;;;;706807;197;925435;-69
2021/12/13 05:49:56;;;;;;;108.63;58.47;;;;;;;;;;702070;198;921866;-70
2021/12/13 05:52:24;;;;;;;127.60;60.57;;;;;;;;;;711094;197;618327;-69
2021/12/13 05:54:49;;;;;;;142.17;67.03;;;;;;;;;;717306;193;918997;-69
2021/12/13 05:57:16;;;;;;;132.97;59.20;;;;;;;;;;712552;196;635071;-69
2021/12/13 05:59:57;;;;;;;123.90;56.80;;;;;;;;;;716858;194;635143;-69
2021/12/13 06:02:29;;;;;;;116.70;54.90;;;;;;;;;;720320;193;919059;-70
2021/12/13 06:04:57;;;;;;;92.47;48.20;;;;;;;;;;718771;189;918158;-69
2021/12/13 06:07:22;;;;;;;109.53;51.00;;;;;;;;;;729023;189;918962;-69
2021/12/13 06:09:52;;;;;;;96.07;50.27;;;;;;;;;;732232;189;922873;-69
2021/12/13 06:12:27;;;;;;;101.87;52.40;;;;;;;;;;724489;191;918793;-69
2021/12/13 06:14:52;;;;;;;105.70;53.13;;;;;;;;;;724830;190;917675;-70
2021/12/13 06:17:21;;;;;;;109.27;52.87;;;;;;;;;;730256;189;919752;-69
2021/12/13 06:19:46;;;;;;;124.37;58.00;;;;;;;;;;722508;189;919134;-69
2021/12/13 06:22:12;;;;;;;126.03;59.27;;;;;;;;;;722788;189;919546;-69
2021/12/13 06:24:39;;;;;;;128.03;55.17;;;;;;;;;;726061;189;918264;-69
2021/12/13 06:27:06;;;;;;;106.70;58.07;;;;;;;;;;733335;189;630314;-69
2021/12/13 06:29:37;;;;;;;116.93;56.90;;;;;;;;;;719167;189;919308;-69
2021/12/13 06:32:03;;;;;;;115.40;59.00;;;;;;;;;;726097;189;633423;-69
2021/12/13 06:34:29;;;;;;;109.32;59.08;;;;;;;;;;727930;189;916523;-69
2021/12/13 06:36:55;;;;;;;111.50;63.90;;;;;;;;;;726404;189;918876;-69
2021/12/13 06:39:20;;;;;;;129.63;61.40;;;;;;;;;;723366;189;919661;-69
2021/12/13 06:41:46;;;;;;;181.83;87.77;;;;;;;;;;732279;189;918747;-69
2021/12/13 06:44:16;;;;;;;182.00;80.20;;;;;;;;;;725165;189;920011;-69
2021/12/13 06:46:42;;;;;;;165.13;77.60;;;;;;;;;;725485;189;919250;-69
2021/12/13 06:49:11;;;;;;;135.73;63.53;;;;;;;;;;725184;190;919641;-69
2021/12/13 06:51:40;;;;;;;119.50;63.10;;;;;;;;;;729436;189;918988;-69
2021/12/13 06:54:06;;;;;;;145.87;65.37;;;;;;;;;;722862;189;919110;-69
2021/12/13 06:56:32;;;;;;;126.50;60.60;;;;;;;;;;724431;189;919492;-69
2021/12/13 06:58:58;;;;;;;120.37;61.50;;;;;;;;;;727332;189;918490;-69
2021/12/13 07:01:23;;;;;;;126.70;65.30;;;;;;;;;;726203;189;919348;-69
2021/12/13 07:03:51;;;;;;;115.73;58.03;;;;;;;;;;730791;189;919556;-69
2021/12/13 07:06:17;;;;;;;132.63;63.20;;;;;;;;;;729385;189;918256;-68
2021/12/13 07:08:43;;;;;;;124.20;61.03;;;;;;;;;;736477;187;867199;-69
2021/12/13 07:11:11;;;;;;;148.67;63.20;;;;;;;;;;729498;189;918999;-69
2021/12/13 07:13:34;;;;;;;139.93;64.87;;;;;;;;;;722827;189;918636;-68
2021/12/13 07:16:01;;;;;;;133.87;63.60;;;;;;;;;;730595;186;919151;-68
2021/12/13 07:18:29;;;;;;;133.40;66.68;;;;;;;;;;719652;189;918677;-69
2021/12/13 07:21:14;;;;;;;126.07;63.97;;;;;;;;;;727514;189;914049;-69
2021/12/13 07:23:46;;;;;;;104.37;53.77;;;;;;;;;;723304;190;991913;-68
2021/12/13 07:26:12;;;;;;;134.53;67.47;;;;;;;;;;726836;189;919879;-68
2021/12/13 07:28:38;;;;;;;158.90;64.97;;;;;;;;;;726680;190;919992;-68
2021/12/13 07:31:05;;;;;;;116.60;60.27;;;;;;;;;;732073;188;919371;-68
2021/12/13 07:33:32;;;;;;;149.57;68.43;;;;;;;;;;724440;189;919319;-69
2021/12/13 07:35:58;;;;;;;169.67;82.50;;;;;;;;;;731428;187;918768;-68
2021/12/13 07:38:26;;;;;;;141.90;73.50;;;;;;;;;;723750;189;919207;-68
2021/12/13 07:40:51;;;;;;;151.20;76.10;;;;;;;;;;729097;189;921114;-69
2021/12/13 07:43:28;;;;;;;200.10;93.60;;;;;;;;;;733196;189;922542;-68
2021/12/13 07:46:03;;;;;;;195.43;101.03;;;;;;;;;;739034;189;918978;-69
2021/12/13 07:48:29;;;;;;;163.87;85.50;;;;;;;;;;733271;189;997523;-68
2021/12/13 07:50:55;;;;;;;134.57;69.67;;;;;;;;;;734537;189;918338;-69
2021/12/13 07:53:20;;;;;;;133.70;67.50;;;;;;;;;;735825;189;915517;-68
2021/12/13 07:55:46;;;;;;;114.93;58.10;;;;;;;;;;729512;189;915937;-69
2021/12/13 07:58:12;;;;;;;115.65;56.17;;;;;;;;;;730268;189;918838;-69
2021/12/13 08:00:38;;;;;;;136.17;62.67;;;;;;;;;;735146;189;919129;-69
2021/12/13 08:03:05;;;;;;;117.05;63.53;;;;;;;;;;725956;189;1021796;-68
2021/12/13 08:05:31;;;;;;;134.70;64.33;;;;;;;;;;722729;189;919019;-69
2021/12/13 08:07:58;;;;;;;155.03;72.90;;;;;;;;;;717925;193;918684;-69
2021/12/13 08:10:25;;;;;;;158.25;73.15;;;;;;;;;;723703;192;919113;-70
2021/12/13 08:12:54;;;;;;;220.87;99.90;;;;;;;;;;705418;198;918833;-69
2021/12/13 08:15:20;;;;;;;221.80;105.60;;;;;;;;;;722845;192;715710;-69
2021/12/13 08:17:48;;;;;;;209.23;102.53;;;;;;;;;;720503;190;627473;-69
2021/12/13 08:20:14;;;;;;;169.55;78.35;;;;;;;;;;731153;189;919627;-68
2021/12/13 08:22:41;;;;;;;177.77;85.97;;;;;;;;;;737010;189;919403;-69
2021/12/13 08:25:08;;;;;;;184.67;95.77;;;;;;;;;;736418;189;921070;-70
2021/12/13 08:27:34;;;;;;;178.10;83.35;;;;;;;;;;720066;190;1018032;-69
2021/12/13 08:30:01;;;;;;;168.07;79.57;;;;;;;;;;739180;189;628886;-69
2021/12/13 08:32:27;;;;;;;173.80;75.40;;;;;;;;;;733523;189;629048;-69
2021/12/13 08:34:55;;;;;;;192.07;87.23;;;;;;;;;;730157;189;630267;-70
2021/12/13 08:37:21;;;;;;;172.93;83.13;;;;;;;;;;734335;189;625492;-70
2021/12/13 08:39:48;;;;;;;205.03;109.03;;;;;;;;;;725833;193;936208;-69
2021/12/13 08:42:15;;;;;;;165.17;83.00;;;;;;;;;;710868;195;919351;-70
2021/12/13 08:44:41;;;;;;;194.00;95.97;;;;;;;;;;726408;190;918814;-69
2021/12/13 08:47:07;;;;;;;149.27;71.90;;;;;;;;;;728835;190;919339;-69
2021/12/13 08:49:33;;;;;;;130.40;65.27;;;;;;;;;;727932;190;920351;-69
2021/12/13 08:52:15;;;;;;;152.33;72.70;;;;;;;;;;730213;190;920171;-70
2021/12/13 08:54:41;;;;;;;168.73;81.70;;;;;;;;;;713076;189;935453;-69
2021/12/13 08:57:08;;;;;;;175.77;80.13;;;;;;;;;;722432;189;920723;-69
2021/12/13 08:59:34;;;;;;;163.03;75.20;;;;;;;;;;721018;189;930192;-74
2021/12/13 09:02:01;;;;;;;175.50;80.03;;;;;;;;;;725488;189;1022490;-70
2021/12/13 09:04:26;;;;;;;177.50;79.80;;;;;;;;;;732623;189;978686;-70
2021/12/13 09:06:52;;;;;;;181.63;84.50;;;;;;;;;;735643;186;920347;-70
2021/12/13 09:09:18;;;;;;;201.03;86.80;;;;;;;;;;718844;190;931205;-70
2021/12/13 09:11:51;;;;;;;190.00;94.07;;;;;;;;;;721120;189;919746;-69
2021/12/13 09:14:31;;;;;;;191.03;87.50;;;;;;;;;;721559;189;913106;-70
2021/12/13 09:17:06;;;;;;;178.30;84.20;;;;;;;;;;731703;189;917243;-69
2021/12/13 09:19:26;;;;;;;190.97;88.67;;;;;;;;;;732539;189;918135;-70
2021/12/13 09:21:54;;;;;;;190.97;89.93;;;;;;;;;;719949;190;919190;-70
2021/12/13 09:24:25;;;;;;;180.80;86.77;;;;;;;;;;718436;192;1118218;-70
2021/12/13 09:26:50;;;;;;;184.30;91.13;;;;;;;;;;722494;191;919303;-71
2021/12/13 09:29:16;;;;;;;203.37;96.07;;;;;;;;;;721553;190;919396;-70
2021/12/13 09:31:42;;;;;;;218.97;101.03;;;;;;;;;;735454;186;920132;-70
2021/12/13 09:34:08;;;;;;;241.32;105.05;;;;;;;;;;733274;189;920719;-70
2021/12/13 09:36:34;;;;;;;203.87;89.43;;;;;;;;;;737471;189;922271;-69
2021/12/13 09:39:03;;;;;;;171.40;82.47;;;;;;;;;;722663;189;919372;-71
2021/12/13 09:41:28;;;;;;;189.52;94.00;;;;;;;;;;717046;189;919330;-69
2021/12/13 09:43:55;;;;;;;190.07;95.53;;;;;;;;;;734395;189;919999;-68
2021/12/13 09:46:21;;;;;;;232.00;102.37;;;;;;;;;;724303;189;922294;-68
2021/12/13 09:48:48;;;;;;;217.80;95.53;;;;;;;;;;729104;189;919372;-68
2021/12/13 09:51:16;;;;;;;217.05;102.53;;;;;;;;;;730611;191;919278;-68
2021/12/13 09:53:41;;;;;;;230.93;104.20;;;;;;;;;;731387;189;920249;-68
2021/12/13 09:56:08;;;;;;;210.20;101.97;;;;;;;;;;735380;189;918474;-67
2021/12/13 09:58:39;;;;;;;256.40;111.47;;;;;;;;;;727390;187;919400;-67
2021/12/13 10:01:08;;;;;;;256.40;115.27;;;;;;;;;;735804;189;919133;-68
2021/12/13 10:03:50;;;;;;;270.27;118.17;;;;;;;;;;726811;189;919238;-67
2021/12/13 10:06:16;;;;;;;288.45;131.18;;;;;;;;;;720893;189;918877;-67
2021/12/13 10:08:46;;;;;;;299.80;135.40;;;;;;;;;;724340;189;919488;-67
2021/12/13 10:11:12;;;;;;;274.55;122.53;;;;;;;;;;727848;189;1021484;-67
2021/12/13 10:13:37;;;;;;;274.00;121.83;;;;;;;;;;727161;189;919549;-67
2021/12/13 10:16:03;;;;;;;237.63;123.43;;;;;;;;;;723334;189;919112;-67
2021/12/13 10:18:29;;;;;;;263.40;113.00;;;;;;;;;;729792;189;919742;-67
2021/12/13 10:20:55;;;;;;;232.97;114.80;;;;;;;;;;733013;189;919530;-67
2021/12/13 10:23:22;;;;;;;204.80;99.60;;;;;;;;;;734396;189;917706;-67
2021/12/13 10:25:48;;;;;;;205.60;95.87;;;;;;;;;;734354;189;1072789;-67
2021/12/13 10:28:13;;;;;;;195.27;93.00;;;;;;;;;;730867;189;918702;-67
2021/12/13 10:30:39;;;;;;;186.97;86.77;;;;;;;;;;727748;192;918877;-66
2021/12/13 10:33:05;;;;;;;201.47;84.80;;;;;;;;;;725463;189;919534;-66
2021/12/13 10:35:31;;;;;;;189.43;86.77;;;;;;;;;;725024;189;920933;-67
2021/12/13 10:37:58;;;;;;;198.60;84.50;;;;;;;;;;731787;190;630610;-66
2021/12/13 10:40:23;;;;;;;147.50;73.10;;;;;;;;;;731004;189;630641;-67
2021/12/13 10:42:49;;;;;;;148.65;69.37;;;;;;;;;;728956;189;1019648;-66
2021/12/13 10:45:16;;;;;;;177.93;76.97;;;;;;;;;;729552;189;919311;-66
2021/12/13 10:47:42;;;;;;;157.47;73.33;;;;;;;;;;725609;189;918715;-66
2021/12/13 10:50:08;;;;;;;150.43;70.07;;;;;;;;;;727581;189;637795;-66
2021/12/13 10:52:34;;;;;;;131.83;64.90;;;;;;;;;;724557;189;919224;-65
2021/12/13 10:55:00;;;;;;;142.05;73.78;;;;;;;;;;740969;187;921196;-66
2021/12/13 10:57:26;;;;;;;156.00;72.57;;;;;;;;;;728658;189;920280;-66
2021/12/13 10:59:52;;;;;;;170.93;80.40;;;;;;;;;;724981;189;1037224;-65
2021/12/13 11:02:19;;;;;;;186.13;79.27;;;;;;;;;;732206;189;1023311;-66
2021/12/13 11:04:45;;;;;;;158.37;74.60;;;;;;;;;;726605;189;919229;-66
2021/12/13 11:07:11;;;;;;;158.02;76.18;;;;;;;;;;722845;189;1021259;-66
2021/12/13 11:09:37;;;;;;;161.37;81.10;;;;;;;;;;726693;189;1022533;-66
2021/12/13 11:12:05;;;;;;;164.03;74.13;;;;;;;;;;725618;189;1021716;-66
2021/12/13 11:14:31;;;;;;;173.50;78.23;;;;;;;;;;725147;189;937096;-65
2021/12/13 11:16:57;;;;;;;157.23;74.23;;;;;;;;;;724006;189;919329;-66
2021/12/13 11:19:22;;;;;;;146.90;74.60;;;;;;;;;;729965;189;919059;-66
2021/12/13 11:21:48;;;;;;;124.67;64.47;;;;;;;;;;731063;189;918560;-66
2021/12/13 11:24:14;;;;;;;141.10;60.83;;;;;;;;;;727722;189;928490;-65
2021/12/13 11:26:40;;;;;;;119.53;55.07;;;;;;;;;;727717;189;919713;-64
2021/12/13 11:29:06;;;;;;;122.10;56.10;;;;;;;;;;730353;189;920530;-65
2021/12/13 11:31:42;;;;;;;104.63;51.90;;;;;;;;;;726213;189;922626;-65
2021/12/13 11:34:11;;;;;;;92.60;47.23;;;;;;;;;;724850;189;921473;-65
2021/12/13 11:36:54;;;;;;;109.57;50.37;;;;;;;;;;727390;189;919547;-65
2021/12/13 11:39:26;;;;;;;111.20;48.23;;;;;;;;;;732415;189;918726;-65
2021/12/13 11:42:06;;;;;;;92.10;48.63;;;;;;;;;;737351;189;919833;-65
2021/12/13 11:44:35;;;;;;;86.23;45.67;;;;;;;;;;701516;193;919036;-66
2021/12/13 11:47:05;;;;;;;88.20;43.30;;;;;;;;;;725716;189;919954;-65
2021/12/13 11:49:41;;;;;;;83.43;42.23;;;;;;;;;;719389;189;920436;-66
2021/12/13 11:52:19;;;;;;;77.13;41.93;;;;;;;;;;728815;189;917846;-66
2021/12/13 11:54:49;;;;;;;145.30;72.07;;;;;;;;;;722831;189;1006589;-64
2021/12/13 11:57:15;;;;;;;90.13;48.53;;;;;;;;;;726646;189;1015790;-66
2021/12/13 11:59:56;;;;;;;92.97;49.13;;;;;;;;;;711885;193;919635;-66
2021/12/13 12:02:23;;;;;;;84.70;45.17;;;;;;;;;;722902;189;920740;-64
2021/12/13 12:04:55;;;;;;;89.23;50.97;;;;;;;;;;727532;189;919372;-66
2021/12/13 12:07:21;;;;;;;112.70;54.27;;;;;;;;;;730603;186;872190;-65
2021/12/13 12:09:52;;;;;;;94.68;51.10;;;;;;;;;;727258;189;921254;-66
2021/12/13 12:12:19;;;;;;;104.60;53.50;;;;;;;;;;725796;189;920214;-65
2021/12/13 12:14:47;;;;;;;113.40;57.67;;;;;;;;;;723015;189;919695;-64
2021/12/13 12:17:13;;;;;;;89.33;51.13;;;;;;;;;;728920;189;922548;-65
2021/12/13 12:19:40;;;;;;;100.63;52.60;;;;;;;;;;726356;189;918660;-65
2021/12/13 12:22:04;;;;;;;98.28;52.60;;;;;;;;;;721331;189;1014851;-66
2021/12/13 12:24:30;;;;;;;95.80;50.17;;;;;;;;;;727238;189;916977;-63
2021/12/13 12:26:57;;;;;;;91.13;51.87;;;;;;;;;;743810;186;1022296;-66
2021/12/13 12:29:22;;;;;;;113.97;54.40;;;;;;;;;;726544;189;919663;-65
2021/12/13 12:31:48;;;;;;;117.23;62.80;;;;;;;;;;728700;189;930766;-66
2021/12/13 12:34:14;;;;;;;115.73;62.77;;;;;;;;;;735856;189;902178;-66
2021/12/13 12:36:44;;;;;;;93.20;50.13;;;;;;;;;;731123;189;918550;-66
2021/12/13 12:39:16;;;;;;;88.40;51.80;;;;;;;;;;729384;189;920027;-64
2021/12/13 12:41:46;;;;;;;106.70;54.40;;;;;;;;;;726660;189;919360;-65
2021/12/13 12:44:15;;;;;;;99.47;53.63;;;;;;;;;;728151;189;986282;-66
2021/12/13 12:46:41;;;;;;;121.23;61.53;;;;;;;;;;722553;189;918567;-65
2021/12/13 12:49:07;;;;;;;115.80;58.53;;;;;;;;;;723013;189;922160;-66
2021/12/13 12:51:33;;;;;;;112.30;60.00;;;;;;;;;;725527;189;914641;-64
2021/12/13 12:54:02;;;;;;;114.87;58.07;;;;;;;;;;732812;189;916729;-65
2021/12/13 12:56:38;;;;;;;97.10;53.40;;;;;;;;;;726173;189;916657;-65
2021/12/13 12:59:06;;;;;;;96.53;51.40;;;;;;;;;;725647;189;919525;-65
2021/12/13 13:01:33;;;;;;;105.33;57.13;;;;;;;;;;724082;189;919098;-66
2021/12/13 13:04:04;;;;;;;93.47;53.07;;;;;;;;;;728402;189;916857;-65
2021/12/13 13:06:30;;;;;;;111.93;59.87;;;;;;;;;;723290;189;1022255;-65
2021/12/13 13:08:56;;;;;;;101.77;57.30;;;;;;;;;;730231;189;928883;-66
2021/12/13 13:11:27;;;;;;;123.97;66.70;;;;;;;;;;732363;186;919365;-64
2021/12/13 13:13:54;;;;;;;122.20;61.60;;;;;;;;;;726105;189;918732;-66
2021/12/13 13:16:20;;;;;;;112.50;56.23;;;;;;;;;;728329;189;919994;-66
2021/12/13 13:18:46;;;;;;;101.10;51.57;;;;;;;;;;722686;190;919777;-66
2021/12/13 13:21:11;;;;;;;83.90;45.53;;;;;;;;;;729592;189;824132;-67
2021/12/13 13:23:37;;;;;;;80.20;47.57;;;;;;;;;;723749;189;918593;-67
2021/12/13 13:26:03;;;;;;;83.63;45.47;;;;;;;;;;729049;189;919054;-67
2021/12/13 13:28:30;;;;;;;72.95;41.42;;;;;;;;;;729752;189;912434;-66
2021/12/13 13:31:01;;;;;;;78.87;45.90;;;;;;;;;;729604;189;916292;-66
2021/12/13 13:33:29;;;;;;;81.33;47.27;;;;;;;;;;723089;189;915204;-67
2021/12/13 13:35:55;;;;;;;81.80;42.73;;;;;;;;;;731751;189;708876;-67
2021/12/13 13:38:21;;;;;;;65.83;40.03;;;;;;;;;;730542;189;919295;-67
2021/12/13 13:40:47;;;;;;;67.13;40.00;;;;;;;;;;722252;189;918524;-67
2021/12/13 13:43:12;;;;;;;60.80;35.80;;;;;;;;;;727351;189;919700;-67
2021/12/13 13:45:40;;;;;;;69.53;39.20;;;;;;;;;;731480;189;642607;-67
2021/12/13 13:48:06;;;;;;;65.03;40.80;;;;;;;;;;731093;189;627400;-67
2021/12/13 13:50:32;;;;;;;107.10;57.40;;;;;;;;;;734135;189;625440;-67
2021/12/13 13:52:59;;;;;;;97.73;53.57;;;;;;;;;;730825;189;657885;-68
2021/12/13 13:55:27;;;;;;;96.63;55.13;;;;;;;;;;732636;189;614200;-67
2021/12/13 13:57:55;;;;;;;113.43;59.07;;;;;;;;;;730242;189;647023;-68
2021/12/13 14:00:21;;;;;;;98.25;50.80;;;;;;;;;;727402;189;923114;-68